createdAt,value
2019-03-23T00:00:45.476Z,5.30
2019-03-23T00:03:16.057Z,5.20
2019-03-23T00:05:45.921Z,5.10
2019-03-23T00:08:16.497Z,4.90
2019-03-23T00:10:46.777Z,5.10
2019-03-23T00:13:17.431Z,5.10
2019-03-23T00:15:47.733Z,4.90
2019-03-23T00:18:18.281Z,4.90
2019-03-23T00:20:49.025Z,4.80
2019-03-23T00:23:19.324Z,4.60
2019-03-23T00:25:49.634Z,4.20
2019-03-23T00:28:19.978Z,4.10
2019-03-23T00:30:50.282Z,4.10
2019-03-23T00:33:20.441Z,4.10
2019-03-23T00:35:51.059Z,4.20
2019-03-23T00:38:21.409Z,4.10
2019-03-23T00:40:52.270Z,4.10
2019-03-23T00:43:22.582Z,4.00
2019-03-23T00:45:53.053Z,3.90
2019-03-23T00:48:23.665Z,4.00
2019-03-23T00:50:54.248Z,3.90
2019-03-23T00:53:24.771Z,3.90
2019-03-23T00:55:54.647Z,3.80
2019-03-23T00:58:24.932Z,3.70
2019-03-23T01:00:54.980Z,3.50
2019-03-23T01:03:25.433Z,3.40
2019-03-23T01:05:55.833Z,3.40
2019-03-23T01:08:26.785Z,3.40
2019-03-23T01:10:56.676Z,3.30
2019-03-23T01:13:27.329Z,3.40
2019-03-23T01:15:57.573Z,3.40
2019-03-23T01:18:27.492Z,3.40
2019-03-23T01:20:58.095Z,3.30
2019-03-23T01:23:28.837Z,3.30
2019-03-23T01:25:59.933Z,3.40
2019-03-23T01:28:30.581Z,3.40
2019-03-23T01:31:01.153Z,3.30
2019-03-23T01:33:31.421Z,3.40
2019-03-23T01:36:02.458Z,3.70
2019-03-23T01:38:33.011Z,4.00
2019-03-23T01:41:03.293Z,3.90
2019-03-23T01:43:34.047Z,3.80
2019-03-23T01:46:04.070Z,3.60
2019-03-23T01:48:35.153Z,3.40
2019-03-23T01:51:05.691Z,3.40
2019-03-23T01:53:36.925Z,3.50
2019-03-23T01:56:07.121Z,3.50
2019-03-23T01:58:37.302Z,3.20
2019-03-23T02:01:07.544Z,3.40
2019-03-23T02:03:38.125Z,3.30
2019-03-23T02:06:08.961Z,3.20
2019-03-23T02:08:39.166Z,3.20
2019-03-23T02:11:09.517Z,3.10
2019-03-23T02:13:40.051Z,3.00
2019-03-23T02:16:10.574Z,3.00
2019-03-23T02:18:41.575Z,3.10
2019-03-23T02:21:12.564Z,3.00
2019-03-23T02:23:42.776Z,3.10
2019-03-23T02:26:12.691Z,3.20
2019-03-23T02:28:42.980Z,3.10
2019-03-23T02:31:13.652Z,3.30
2019-03-23T02:33:44.286Z,3.10
2019-03-23T02:36:14.977Z,3.00
2019-03-23T02:38:45.862Z,2.90
2019-03-23T02:41:16.923Z,2.90
2019-03-23T02:43:47.751Z,3.30
2019-03-23T02:46:17.642Z,3.30
2019-03-23T02:48:48.913Z,3.30
2019-03-23T02:51:19.186Z,3.20
2019-03-23T02:53:49.991Z,3.30
2019-03-23T02:56:20.503Z,3.20
2019-03-23T02:58:51.573Z,3.20
2019-03-23T03:01:22.141Z,3.40
2019-03-23T03:03:52.877Z,3.30
2019-03-23T03:06:23.484Z,3.20
2019-03-23T03:08:54.510Z,2.90
2019-03-23T03:11:24.562Z,2.70
2019-03-23T03:13:54.793Z,2.70
2019-03-23T03:16:25.128Z,2.80
2019-03-23T03:18:55.761Z,2.70
2019-03-23T03:21:25.973Z,2.50
2019-03-23T03:23:56.544Z,2.60
2019-03-23T03:26:27.205Z,2.60
2019-03-23T03:28:57.907Z,2.60
2019-03-23T03:31:28.504Z,2.70
2019-03-23T03:33:59.404Z,2.80
2019-03-23T03:36:30.365Z,2.70
2019-03-23T03:39:00.603Z,2.60
2019-03-23T03:41:30.863Z,2.60
2019-03-23T03:44:01.765Z,2.80
2019-03-23T03:46:32.014Z,2.90
2019-03-23T03:49:12.353Z,2.80
2019-03-23T03:51:34.608Z,2.90
2019-03-23T03:54:05.020Z,2.80
2019-03-23T03:56:35.778Z,2.90
2019-03-23T03:59:05.847Z,2.90
2019-03-23T04:01:36.271Z,3.00
2019-03-23T04:04:06.410Z,2.90
2019-03-23T04:06:37.235Z,2.90
2019-03-23T04:09:08.394Z,2.80
2019-03-23T04:11:38.614Z,2.70
2019-03-23T04:14:09.181Z,2.60
2019-03-23T04:16:39.079Z,2.40
2019-03-23T04:19:09.358Z,2.30
2019-03-23T04:21:40.381Z,2.40
2019-03-23T04:24:10.652Z,2.40
2019-03-23T04:26:41.606Z,2.10
2019-03-23T04:29:12.038Z,2.30
2019-03-23T04:31:42.339Z,2.20
2019-03-23T04:34:12.962Z,2.20
2019-03-23T04:36:42.863Z,2.30
2019-03-23T04:39:13.133Z,2.60
2019-03-23T04:41:43.412Z,2.70
2019-03-23T04:44:14.081Z,2.90
2019-03-23T04:46:44.265Z,2.90
2019-03-23T04:49:15.086Z,3.20
2019-03-23T04:51:45.316Z,3.40
2019-03-23T04:54:15.562Z,3.40
2019-03-23T04:56:45.845Z,3.20
2019-03-23T04:59:16.954Z,3.20
2019-03-23T05:01:47.301Z,3.40
2019-03-23T05:04:17.934Z,3.40
2019-03-23T05:06:48.953Z,3.40
2019-03-23T05:09:19.275Z,3.40
2019-03-23T05:11:50.154Z,3.60
2019-03-23T05:14:20.601Z,3.50
2019-03-23T05:16:50.889Z,3.30
2019-03-23T05:19:22.172Z,3.10
2019-03-23T05:21:52.811Z,3.00
2019-03-23T05:24:23.485Z,3.00
2019-03-23T05:26:54.425Z,2.90
2019-03-23T05:29:25.090Z,2.80
2019-03-23T05:31:55.313Z,2.70
2019-03-23T05:34:26.600Z,2.80
2019-03-23T05:36:56.869Z,3.00
2019-03-23T05:39:27.485Z,3.00
2019-03-23T05:41:57.858Z,3.20
2019-03-23T05:44:28.813Z,3.40
2019-03-23T05:46:59.349Z,3.40
2019-03-23T05:49:29.285Z,3.60
2019-03-23T05:52:01.545Z,3.90
2019-03-23T05:54:31.985Z,3.90
2019-03-23T05:57:02.634Z,3.80
2019-03-23T05:59:33.323Z,3.80
2019-03-23T06:02:03.537Z,3.80
2019-03-23T06:04:33.766Z,3.80
2019-03-23T06:07:04.345Z,3.80
2019-03-23T06:09:34.297Z,3.70
2019-03-23T06:12:04.897Z,3.80
2019-03-23T06:14:35.181Z,3.80
2019-03-23T06:17:06.119Z,3.90
2019-03-23T06:19:36.341Z,4.00
2019-03-23T06:22:06.644Z,4.10
2019-03-23T06:24:36.957Z,4.10
2019-03-23T06:27:07.708Z,4.20
2019-03-23T06:29:37.898Z,4.30
2019-03-23T06:32:08.082Z,4.40
2019-03-23T06:34:39.216Z,4.50
2019-03-23T06:37:10.439Z,4.70
2019-03-23T06:39:40.581Z,4.70
2019-03-23T06:42:10.482Z,4.80
2019-03-23T06:44:41.339Z,4.90
2019-03-23T06:47:12.294Z,5.10
2019-03-23T06:49:43.132Z,5.30
2019-03-23T06:52:13.805Z,5.40
2019-03-23T06:54:44.026Z,5.50
2019-03-23T06:57:14.662Z,5.70
2019-03-23T06:59:45.393Z,5.70
2019-03-23T07:02:15.727Z,5.90
2019-03-23T07:04:46.051Z,6.20
2019-03-23T07:07:16.376Z,6.50
2019-03-23T07:09:46.580Z,6.80
2019-03-23T07:12:17.370Z,7.00
2019-03-23T07:14:47.676Z,7.20
2019-03-23T07:17:18.541Z,7.40
2019-03-23T07:19:48.843Z,7.60
2019-03-23T07:22:19.474Z,7.50
2019-03-23T07:24:49.706Z,7.50
2019-03-23T07:27:20.329Z,7.70
2019-03-23T07:29:50.511Z,7.70
2019-03-23T07:32:21.818Z,7.70
2019-03-23T07:34:52.890Z,7.80
2019-03-23T07:37:23.310Z,7.90
2019-03-23T07:39:54.129Z,7.90
2019-03-23T07:42:24.964Z,8.10
2019-03-23T07:44:54.899Z,8.10
2019-03-23T07:47:25.074Z,8.00
2019-03-23T07:49:55.676Z,8.20
2019-03-23T07:52:26.233Z,8.30
2019-03-23T07:54:58.639Z,8.30
2019-03-23T07:57:29.221Z,8.40
2019-03-23T07:59:59.365Z,8.50
2019-03-23T08:02:29.610Z,8.60
2019-03-23T08:04:59.982Z,8.70
2019-03-23T08:07:30.259Z,8.90
2019-03-23T08:10:00.555Z,8.90
2019-03-23T08:12:31.112Z,9.00
2019-03-23T08:15:01.863Z,8.90
2019-03-23T08:17:32.906Z,9.00
2019-03-23T08:20:02.854Z,9.00
2019-03-23T08:22:33.268Z,9.10
2019-03-23T08:25:03.490Z,9.20
2019-03-23T08:27:33.709Z,9.20
2019-03-23T08:30:04.101Z,9.20
2019-03-23T08:32:34.753Z,9.20
2019-03-23T08:35:05.400Z,9.40
2019-03-23T08:37:35.950Z,9.60
2019-03-23T08:40:06.909Z,9.60
2019-03-23T08:42:37.773Z,9.70
2019-03-23T08:45:08.202Z,9.60
2019-03-23T08:47:38.882Z,9.70
2019-03-23T08:50:09.233Z,9.90
2019-03-23T08:52:39.793Z,10.00
2019-03-23T08:55:10.416Z,9.90
2019-03-23T08:57:41.550Z,10.10
2019-03-23T09:00:11.798Z,10.20
2019-03-23T09:02:42.090Z,10.10
2019-03-23T09:05:12.751Z,10.10
2019-03-23T09:07:43.377Z,10.20
2019-03-23T09:10:13.553Z,10.30
2019-03-23T09:12:43.456Z,10.30
2019-03-23T09:15:13.883Z,10.40
2019-03-23T09:17:44.190Z,10.60
2019-03-23T09:20:15.141Z,10.60
2019-03-23T09:22:46.421Z,10.70
2019-03-23T09:25:16.597Z,10.80
2019-03-23T09:27:46.968Z,10.80
2019-03-23T09:30:18.658Z,10.80
2019-03-23T09:32:49.327Z,11.10
2019-03-23T09:35:19.241Z,11.00
2019-03-23T09:37:50.409Z,10.90
2019-03-23T09:40:21.029Z,11.00
2019-03-23T09:42:51.419Z,11.10
2019-03-23T09:45:21.670Z,11.10
2019-03-23T09:47:52.261Z,11.20
2019-03-23T09:50:23.250Z,11.10
2019-03-23T09:52:53.835Z,11.30
2019-03-23T09:55:24.522Z,11.30
2019-03-23T09:57:55.453Z,11.40
2019-03-23T10:00:25.813Z,11.60
2019-03-23T10:02:56.419Z,11.60
2019-03-23T10:05:27.104Z,11.60
2019-03-23T10:07:57.473Z,11.60
2019-03-23T10:10:27.764Z,11.90
2019-03-23T10:12:58.092Z,11.80
2019-03-23T10:15:28.659Z,12.00
2019-03-23T10:17:58.913Z,12.20
2019-03-23T10:20:29.181Z,12.20
2019-03-23T10:22:59.786Z,12.10
2019-03-23T10:25:30.323Z,12.10
2019-03-23T10:28:00.975Z,12.30
2019-03-23T10:30:31.276Z,12.40
2019-03-23T10:33:01.501Z,12.60
2019-03-23T10:35:32.086Z,12.70
2019-03-23T10:38:03.310Z,12.70
2019-03-23T10:40:33.945Z,12.80
2019-03-23T10:43:03.814Z,12.60
2019-03-23T10:45:43.808Z,12.70
2019-03-23T10:48:07.203Z,12.70
2019-03-23T10:50:37.834Z,12.80
2019-03-23T10:53:07.756Z,12.90
2019-03-23T10:55:38.621Z,12.80
2019-03-23T10:58:08.853Z,12.90
2019-03-23T11:00:39.018Z,13.00
2019-03-23T11:03:09.613Z,13.00
2019-03-23T11:05:39.884Z,13.00
2019-03-23T11:08:09.750Z,13.00
2019-03-23T11:10:41.953Z,13.30
2019-03-23T11:13:11.597Z,13.20
2019-03-23T11:15:42.102Z,13.10
2019-03-23T11:18:13.331Z,13.30
2019-03-23T11:20:44.429Z,13.30
2019-03-23T11:23:14.341Z,13.30
2019-03-23T11:25:44.945Z,13.40
2019-03-23T11:28:15.671Z,13.60
2019-03-23T11:30:45.714Z,13.60
2019-03-23T11:33:16.054Z,13.40
2019-03-23T11:35:57.238Z,13.70
2019-03-23T11:38:19.650Z,13.70
2019-03-23T11:40:54.983Z,13.80
2019-03-23T11:43:21.733Z,13.70
2019-03-23T11:45:52.065Z,13.70
2019-03-23T11:48:22.897Z,13.50
2019-03-23T11:50:52.841Z,13.70
2019-03-23T11:53:23.088Z,13.70
2019-03-23T11:55:53.680Z,13.80
2019-03-23T11:58:23.594Z,13.80
2019-03-23T12:00:53.801Z,13.70
2019-03-23T12:03:24.140Z,14.00
2019-03-23T12:05:55.417Z,14.10
2019-03-23T12:08:26.734Z,14.10
2019-03-23T12:11:02.945Z,14.10
2019-03-23T12:13:29.918Z,13.90
2019-03-23T12:16:00.258Z,14.20
2019-03-23T12:18:30.948Z,14.10
2019-03-23T12:21:01.973Z,14.10
2019-03-23T12:23:32.781Z,14.20
2019-03-23T12:26:03.150Z,14.10
2019-03-23T12:28:34.008Z,14.30
2019-03-23T12:31:04.673Z,14.20
2019-03-23T12:33:35.205Z,14.20
2019-03-23T12:36:05.146Z,14.30
2019-03-23T12:38:35.619Z,14.60
2019-03-23T12:41:14.229Z,14.50
2019-03-23T12:43:38.305Z,14.50
2019-03-23T12:46:08.685Z,14.50
2019-03-23T12:48:38.629Z,14.50
2019-03-23T12:51:09.122Z,14.50
2019-03-23T12:53:39.407Z,14.50
2019-03-23T12:56:10.009Z,14.50
2019-03-23T12:58:40.511Z,14.50
2019-03-23T13:01:11.553Z,14.60
2019-03-23T13:03:41.757Z,14.70
2019-03-23T13:06:12.627Z,14.90
2019-03-23T13:08:43.981Z,14.90
2019-03-23T13:11:23.051Z,14.80
2019-03-23T13:13:46.613Z,14.90
2019-03-23T13:16:16.877Z,15.00
2019-03-23T13:18:47.585Z,14.90
2019-03-23T13:21:17.842Z,15.00
2019-03-23T13:23:48.529Z,15.00
2019-03-23T13:26:18.417Z,14.90
2019-03-23T13:28:48.958Z,14.90
2019-03-23T13:31:19.697Z,15.00
2019-03-23T13:33:50.157Z,14.90
2019-03-23T13:36:20.364Z,15.00
2019-03-23T13:38:50.913Z,15.00
2019-03-23T13:41:21.224Z,15.10
2019-03-23T13:43:51.493Z,15.20
2019-03-23T13:46:21.693Z,15.20
2019-03-23T13:48:52.309Z,15.20
2019-03-23T13:51:22.640Z,15.30
2019-03-23T13:53:53.333Z,15.30
2019-03-23T13:56:23.709Z,15.20
2019-03-23T13:58:54.208Z,15.30
2019-03-23T14:01:24.625Z,15.40
2019-03-23T14:03:54.481Z,15.40
2019-03-23T14:06:25.033Z,15.30
2019-03-23T14:08:55.631Z,15.40
2019-03-23T14:11:25.883Z,15.40
2019-03-23T14:13:56.517Z,15.30
2019-03-23T14:16:27.565Z,15.30
2019-03-23T14:18:58.157Z,15.30
2019-03-23T14:21:29.408Z,15.50
2019-03-23T14:23:59.749Z,15.40
2019-03-23T14:26:30.313Z,15.50
2019-03-23T14:29:00.944Z,15.50
2019-03-23T14:31:31.478Z,15.50
2019-03-23T14:34:02.110Z,15.50
2019-03-23T14:36:32.468Z,15.50
2019-03-23T14:39:04.995Z,15.50
2019-03-23T14:41:35.662Z,15.50
2019-03-23T14:44:06.292Z,15.50
2019-03-23T14:46:36.577Z,15.50
2019-03-23T14:49:06.867Z,15.40
2019-03-23T14:51:37.532Z,15.50
2019-03-23T14:54:07.775Z,15.60
2019-03-23T14:56:38.162Z,15.70
2019-03-23T14:59:08.731Z,15.60
2019-03-23T15:01:39.267Z,15.60
2019-03-23T15:04:09.848Z,15.50
2019-03-23T15:06:40.418Z,15.50
2019-03-23T15:09:11.367Z,15.50
2019-03-23T15:11:41.585Z,15.50
2019-03-23T15:14:12.131Z,15.50
2019-03-23T15:16:42.045Z,15.50
2019-03-23T15:19:11.943Z,15.50
2019-03-23T15:21:42.596Z,15.50
2019-03-23T15:24:12.972Z,15.50
2019-03-23T15:26:43.859Z,15.50
2019-03-23T15:29:13.774Z,15.50
2019-03-23T15:31:44.439Z,15.50
2019-03-23T15:34:15.432Z,15.50
2019-03-23T15:36:45.654Z,15.50
2019-03-23T15:39:15.844Z,15.50
2019-03-23T15:41:46.783Z,15.50
2019-03-23T15:44:16.689Z,15.50
2019-03-23T15:46:47.685Z,15.40
2019-03-23T15:49:19.065Z,15.50
2019-03-23T15:51:49.448Z,15.50
2019-03-23T15:54:20.210Z,15.40
2019-03-23T15:56:50.821Z,15.40
2019-03-23T15:59:21.540Z,15.40
2019-03-23T16:01:52.069Z,15.30
2019-03-23T16:04:22.634Z,15.40
2019-03-23T16:06:53.385Z,15.30
2019-03-23T16:09:24.002Z,15.30
2019-03-23T16:11:53.981Z,15.30
2019-03-23T16:14:23.928Z,15.30
2019-03-23T16:16:54.876Z,15.20
2019-03-23T16:19:25.588Z,15.10
2019-03-23T16:21:55.878Z,15.00
2019-03-23T16:24:26.218Z,15.50
2019-03-23T16:26:57.233Z,16.10
2019-03-23T16:29:27.794Z,15.90
2019-03-23T16:31:58.221Z,15.50
2019-03-23T16:34:28.554Z,15.30
2019-03-23T16:36:58.506Z,15.20
2019-03-23T16:39:29.530Z,15.00
2019-03-23T16:42:00.534Z,14.70
2019-03-23T16:44:31.241Z,14.40
2019-03-23T16:47:01.132Z,14.20
2019-03-23T16:49:31.794Z,14.20
2019-03-23T16:52:02.370Z,14.10
2019-03-23T16:54:32.911Z,13.90
2019-03-23T16:57:03.927Z,13.90
2019-03-23T16:59:34.387Z,13.80
2019-03-23T17:02:04.627Z,13.60
2019-03-23T17:04:34.947Z,13.40
2019-03-23T17:07:05.658Z,13.30
2019-03-23T17:09:35.797Z,13.20
2019-03-23T17:12:06.804Z,13.40
2019-03-23T17:14:37.111Z,13.20
2019-03-23T17:17:07.058Z,13.30
2019-03-23T17:19:37.474Z,13.40
2019-03-23T17:22:08.133Z,13.30
2019-03-23T17:24:38.061Z,13.20
2019-03-23T17:27:08.534Z,13.20
2019-03-23T17:29:39.253Z,13.00
2019-03-23T17:32:09.786Z,12.90
2019-03-23T17:34:40.089Z,13.20
2019-03-23T17:37:11.013Z,13.10
2019-03-23T17:39:41.996Z,13.10
2019-03-23T17:42:12.291Z,12.90
2019-03-23T17:44:42.922Z,12.90
2019-03-23T17:47:12.882Z,12.90
2019-03-23T17:49:43.069Z,12.80
2019-03-23T17:52:13.500Z,12.80
2019-03-23T17:54:44.113Z,12.70
2019-03-23T17:57:14.650Z,12.70
2019-03-23T17:59:44.932Z,12.80
2019-03-23T18:02:15.260Z,12.60
2019-03-23T18:04:45.108Z,12.60
2019-03-23T18:07:15.333Z,12.70
2019-03-23T18:09:45.533Z,12.50
2019-03-23T18:12:15.673Z,12.60
2019-03-23T18:14:46.718Z,12.40
2019-03-23T18:17:16.883Z,12.30
2019-03-23T18:19:47.567Z,12.20
2019-03-23T18:22:18.569Z,12.30
2019-03-23T18:24:49.575Z,12.20
2019-03-23T18:27:19.966Z,12.40
2019-03-23T18:29:50.241Z,12.40
2019-03-23T18:32:21.575Z,12.30
2019-03-23T18:34:51.816Z,12.30
2019-03-23T18:37:22.097Z,12.30
2019-03-23T18:39:52.753Z,12.30
2019-03-23T18:42:22.689Z,12.10
2019-03-23T18:44:53.762Z,12.10
2019-03-23T18:47:23.680Z,12.10
2019-03-23T18:49:53.558Z,12.00
2019-03-23T18:52:23.747Z,12.00
2019-03-23T18:54:53.982Z,12.00
2019-03-23T18:57:23.876Z,12.00
2019-03-23T18:59:53.733Z,12.00
2019-03-23T19:02:23.935Z,11.90
2019-03-23T19:04:54.429Z,11.90
2019-03-23T19:07:24.733Z,11.90
2019-03-23T19:09:54.614Z,11.80
2019-03-23T19:12:24.730Z,11.90
2019-03-23T19:14:54.576Z,12.00
2019-03-23T19:17:25.465Z,11.80
2019-03-23T19:19:56.097Z,11.80
2019-03-23T19:22:27.126Z,11.90
2019-03-23T19:24:57.653Z,11.90
2019-03-23T19:27:28.193Z,11.80
2019-03-23T19:29:58.119Z,11.70
2019-03-23T19:32:29.101Z,11.70
2019-03-23T19:35:00.290Z,11.50
2019-03-23T19:37:30.693Z,11.40
2019-03-23T19:40:01.001Z,11.40
2019-03-23T19:42:30.863Z,11.30
2019-03-23T19:45:01.211Z,11.30
2019-03-23T19:47:31.593Z,11.30
2019-03-23T19:50:02.114Z,11.30
2019-03-23T19:52:33.635Z,11.20
2019-03-23T19:55:04.362Z,11.20
2019-03-23T19:57:34.743Z,11.20
2019-03-23T20:00:05.177Z,11.10
2019-03-23T20:02:35.542Z,11.10
2019-03-23T20:05:05.719Z,11.20
2019-03-23T20:07:35.882Z,11.10
2019-03-23T20:10:07.398Z,11.10
2019-03-23T20:12:37.351Z,11.00
2019-03-23T20:15:07.933Z,10.90
2019-03-23T20:17:38.613Z,11.00
2019-03-23T20:20:10.203Z,10.90
2019-03-23T20:22:40.453Z,11.00
2019-03-23T20:25:11.502Z,10.90
2019-03-23T20:27:41.439Z,10.80
2019-03-23T20:30:12.429Z,10.90
2019-03-23T20:32:42.921Z,10.90
2019-03-23T20:35:13.241Z,10.80
2019-03-23T20:37:44.389Z,10.70
2019-03-23T20:40:14.628Z,10.80
2019-03-23T20:42:44.892Z,10.70
2019-03-23T20:45:20.485Z,10.60
2019-03-23T20:47:51.419Z,10.60
2019-03-23T20:50:22.138Z,10.50
2019-03-23T20:52:52.335Z,10.50
2019-03-23T20:55:30.346Z,10.50
2019-03-23T20:58:00.981Z,10.60
2019-03-23T21:00:31.623Z,10.60
2019-03-23T21:03:02.558Z,10.70
2019-03-23T21:05:34.205Z,10.60
2019-03-23T21:08:04.940Z,10.60
2019-03-23T21:10:35.193Z,10.60
2019-03-23T21:13:06.285Z,10.50
2019-03-23T21:15:36.867Z,10.60
2019-03-23T21:18:06.782Z,10.50
2019-03-23T21:20:37.361Z,10.60
2019-03-23T21:23:08.205Z,10.70
2019-03-23T21:25:38.548Z,10.70
2019-03-23T21:28:08.433Z,11.20
2019-03-23T21:30:39.103Z,11.50
2019-03-23T21:33:09.582Z,11.50
2019-03-23T21:35:40.299Z,11.40
2019-03-23T21:38:10.999Z,11.60
2019-03-23T21:40:41.327Z,11.80
2019-03-23T21:43:11.984Z,11.90
2019-03-23T21:45:42.400Z,11.80
2019-03-23T21:48:13.587Z,11.90
2019-03-23T21:50:47.791Z,12.00
2019-03-23T21:53:16.663Z,12.00
2019-03-23T21:55:47.079Z,11.90
2019-03-23T21:58:17.931Z,11.90
2019-03-23T22:00:48.478Z,11.90
2019-03-23T22:03:19.501Z,11.80
2019-03-23T22:05:49.946Z,11.70
2019-03-23T22:08:20.961Z,11.60
2019-03-23T22:10:51.171Z,11.50
2019-03-23T22:13:22.484Z,11.40
2019-03-23T22:15:53.708Z,11.20
2019-03-23T22:18:24.029Z,11.10
2019-03-23T22:20:54.330Z,11.10
2019-03-23T22:23:25.217Z,11.10
2019-03-23T22:25:55.923Z,11.00
2019-03-23T22:28:25.845Z,11.20
2019-03-23T22:30:56.642Z,11.00
2019-03-23T22:33:27.892Z,11.10
2019-03-23T22:35:58.779Z,11.00
2019-03-23T22:38:29.317Z,10.90
2019-03-23T22:41:00.098Z,10.90
2019-03-23T22:43:30.353Z,10.80
2019-03-23T22:46:00.549Z,10.70
2019-03-23T22:48:31.445Z,10.70
2019-03-23T22:51:01.834Z,10.70
2019-03-23T22:53:32.952Z,10.60
2019-03-23T22:56:03.714Z,10.60
2019-03-23T22:58:34.082Z,10.60
2019-03-23T23:01:04.112Z,10.50
2019-03-23T23:03:34.810Z,10.50
2019-03-23T23:06:05.449Z,10.50
2019-03-23T23:08:36.081Z,10.40
2019-03-23T23:11:06.451Z,10.40
2019-03-23T23:13:37.017Z,10.30
2019-03-23T23:16:07.736Z,10.20
2019-03-23T23:18:38.369Z,10.20
2019-03-23T23:21:09.004Z,10.10
2019-03-23T23:23:39.333Z,10.00
2019-03-23T23:26:09.725Z,9.90
2019-03-23T23:28:40.214Z,9.80
2019-03-23T23:31:10.573Z,9.80
2019-03-23T23:33:40.933Z,9.70
2019-03-23T23:36:11.180Z,9.60
2019-03-23T23:38:41.724Z,9.50
2019-03-23T23:41:11.932Z,9.50
2019-03-23T23:43:42.774Z,9.40
2019-03-23T23:46:13.842Z,9.30
2019-03-23T23:48:51.296Z,9.30
2019-03-23T23:51:16.626Z,9.30
2019-03-23T23:53:46.850Z,9.30
2019-03-23T23:56:17.092Z,9.20
2019-03-23T23:58:47.008Z,9.20
